TAF KHOU
AMD KHOU 082058Z 0821/0918 13008KT P6SM BKN030 FM090300 13007KT 6SM BR OVC015 FM090900 14005KT 3SM BR OVC006 FM091200 14003KT 1SM BR OVC003 FM091600 19009KT P6SM BKN015=
METAR KHOU
KHOU 082053Z 12008KT 7SM BR OVC031 21/17 A2998 RMK AO2 SLP156 T02110167 56017
SPECI KHOU 082029Z 12009KT 7SM BR OVC030 21/16 A2998 RMK AO2 T02110161
KHOU 081953Z 12011KT 7SM BR BKN017 OVC022 22/17 A2999 RMK AO2 SLP159 T02170167 ?
KHOU 081853Z 07003KT 6SM BR OVC020 22/16 A3001 RMK AO2 SLP165 T02220161 ?
KHOU 081753Z VRB05KT 5SM BR OVC012 22/17 A3003 RMK AO2 SLP172 T02170167 10217 20172 58011 ?
WC KHOU
WS KHOU
WV KHOU